Track Екишев Евгений

Time Latitude Longitude Accuracy (66% radius in meters) Altitude (meters) Speed (km/hour) Bearing (degrees) Battery (%) GPS flag
10:36:41 60.370979 29.556662 24 57.969006005254 0.00692343339324 112.52617645264 69 1 delete
10:36:32 60.370960 29.556754 12 55.400527326586 0.0081503055989742 43.281711578369 69 1 delete
10:36:29 60.370925 29.556858 16 54.898903841718 0.22095395624638 43.281711578369 69 1 delete
10:36:23 60.370924 29.556867 16 54.271344837075 1.524115562439 43.281711578369 69 1 delete
10:36:20 60.370874 29.556877 16 54.494187405909 1.1975160837173 55.307929992676 69 1 delete
10:36:14 60.370829 29.556911 16 55.407400080559 1.7092303037643 120.54790496826 69 1 delete
10:36:08 60.370873 29.556863 24 58.085289807458 1.4428381919861 124.76179504395 69 1 delete
10:35:56 60.370927 29.556834 24 62.418073497007 1.0392166376114 121.03430175781 69 1 delete
10:35:53 60.370906 29.556788 16 63.414346137297 1.0264245271683 109.26765441895 69 1 delete
10:35:47 60.370888 29.556667 16 65.98241191832 0.9813717007637 121.86730194092 69 1 delete
10:35:44 60.370880 29.556623 24 67.119203143738 0.95991778373718 122.0457611084 69 1 delete
10:35:41 60.370874 29.556580 24 68.309252724554 0.93177092075348 115.46228027344 69 1 delete
10:35:35 60.370820 29.556603 24 70.262288072696 0.79579329490662 104.85650634766 69 1 delete
10:35:29 60.370790 29.556679 32 70.954485313935 0.63876414299011 165.92900085449 69 1 delete
10:35:23 60.370771 29.556726 24 71.044118669615 0.54509711265564 165.92900085449 69 1 delete
10:35:11 60.370765 29.556761 24 70.881774038342 0 133.10977172852 69 1 delete
10:35:05 60.370765 29.556761 16 71.280804634254 0 133.10977172852 69 1 delete
10:35:02 60.370794 29.556861 16 71.32948569889 0 133.10977172852 69 1 delete
10:34:59 60.370846 29.556983 24 71.383906170452 0 133.10977172852 69 1 delete
10:34:56 60.370917 29.556980 24 71.445862764358 0 133.10977172852 69 1 delete
10:34:47 60.370998 29.556943 24 71.5763000019 0.44929930567741 118.05053710938 69 1 delete
10:34:38 60.371010 29.556909 16 72.441108860759 0.41578584909439 85.176902770996 69 1 delete
10:34:35 60.371011 29.556891 24 72.666622105263 0.48903915286064 82.47526550293 69 1 delete
10:34:25 60.371013 29.556815 16 72.692380958902 0.49289575219154 84.999351501465 69 1 delete
10:34:22 60.371015 29.556789 24 72.940972234838 0.50483453273773 87.896751403809 69 1 delete
10:34:14 60.371026 29.556689 16 73.632660931727 0.49610072374344 74.02458190918 69 1 delete
10:34:11 60.371028 29.556654 24 74.04848932048 0.50001132488251 61.260604858398 69 1 delete
10:34:05 60.371015 29.556595 16 74.503001469155 0.48381355404854 54.016170501709 69 1 delete
10:34:02 60.371008 29.556568 16 74.872738093937 0.48289003968239 56.186779022217 69 1 delete
10:33:53 60.370986 29.556483 32 76.095528882753 0.43867406249046 64.432060241699 69 1 delete
10:33:41 60.370959 29.556392 8 76.927156345096 0.31176710128784 325.2138671875 69 1 delete
10:33:35 60.370948 29.556418 6 76.039747662818 1.0919667482376 328.70272827148 69 1 delete
10:33:29 60.370918 29.556516 4 76.13289799636 0.46382218599319 336.92532348633 69 1 delete
10:33:23 60.370908 29.556530 8 76.449666739994 0.045314829796553 318.4303894043 69 1 delete
10:33:17 60.370911 29.556547 16 76.647814285622 0.16154615581036 318.4303894043 69 1 delete
10:33:08 60.370922 29.556615 12 77.254854822568 0.19640451669693 137.08303833008 69 1 delete
10:32:56 60.370920 29.556583 12 77.881864725142 1.2423226833344 295.38940429688 69 1 delete
10:32:53 60.370894 29.556621 6 78.027888315345 1.2980612516403 306.24722290039 69 1 delete
10:32:47 60.370851 29.556707 6 78.415566177182 1.5545198917389 318.80889892578 69 1 delete
10:32:44 60.370805 29.556764 8 78.683218685447 1.4222739934921 357.4436340332 69 1 delete
10:32:38 60.370729 29.556807 6 79.369773110937 0.65310424566269 27.663387298584 69 1 delete
10:32:32 60.370687 29.556835 8 80.110558250947 0.78208786249161 278.13864135742 69 1 delete
10:32:29 60.370677 29.556848 8 80.153613937598 3.8542633056641 278.13864135742 69 1 delete
10:32:26 60.370657 29.556966 12 80.226353662291 4.2858772277832 300.26358032227 69 1 delete
10:32:23 60.370630 29.557104 8 80.17579635558 4.3892498016357 300.11715698242 69 1 delete
10:32:20 60.370650 29.557283 8 82.608656779014 4.602846622467 246.31221008301 69 1 delete
10:32:17 60.370756 29.557407 8 84.079845357685 4.689887046814 194.10110473633 69 1 delete
10:32:14 60.370928 29.557355 8 88.658873107741 4.6282696723938 139.10557556152 69 1 delete
10:32:11 60.371070 29.557177 12 91.437634191249 4.5167455673218 124.12789154053 69 1 delete
10:32:08 60.371196 29.557020 8 93.018155733477 4.3450675010681 177.08395385742 69 1 delete